createdAt,value
2023-05-10T00:01:09.795Z,100833.13
2023-05-10T00:03:36.450Z,100825.16
2023-05-10T00:06:03.509Z,100824.03
2023-05-10T00:08:29.990Z,100826.78
2023-05-10T00:10:56.561Z,100824.03
2023-05-10T00:13:23.291Z,100824.88
2023-05-10T00:15:49.900Z,100821.25
2023-05-10T00:18:16.503Z,100827.34
2023-05-10T00:20:43.076Z,100823.47
2023-05-10T00:23:09.567Z,100822.06
2023-05-10T00:25:36.157Z,100822.84
2023-05-10T00:28:02.740Z,100818.72
2023-05-10T00:30:29.282Z,100817.91
2023-05-10T00:32:55.836Z,100828.84
2023-05-10T00:35:22.663Z,100824.47
2023-05-10T00:37:49.201Z,100820.59
2023-05-10T00:40:16.029Z,100819.56
2023-05-10T00:42:46.361Z,100825.31
2023-05-10T00:45:13.021Z,100831.09
2023-05-10T00:47:40.506Z,100831.06
2023-05-10T00:50:08.197Z,100826.63
2023-05-10T00:52:34.770Z,100821.44
2023-05-10T00:55:01.549Z,100818.44
2023-05-10T00:57:28.155Z,100822.78
2023-05-10T00:59:54.713Z,100818.69
2023-05-10T01:02:21.301Z,100818.94
2023-05-10T01:04:48.259Z,100816.63
2023-05-10T01:07:14.877Z,100813.47
2023-05-10T01:09:41.488Z,100817.84
2023-05-10T01:12:08.465Z,100830.50
2023-05-10T01:14:37.289Z,100818.41
2023-05-10T01:17:06.070Z,100820.03
2023-05-10T01:19:36.023Z,100820.00
2023-05-10T01:22:33.299Z,100819.50
2023-05-10T01:24:59.812Z,100817.03
2023-05-10T01:27:45.756Z,100817.84
2023-05-10T01:30:27.618Z,100823.34
2023-05-10T01:33:13.024Z,100809.59
2023-05-10T01:35:46.739Z,100814.81
2023-05-10T01:38:14.556Z,100806.06
2023-05-10T01:40:53.367Z,100821.72
2023-05-10T01:43:27.302Z,100826.19
2023-05-10T01:46:11.356Z,100821.19
2023-05-10T01:48:47.277Z,100830.75
2023-05-10T01:51:17.747Z,100826.88
2023-05-10T01:53:47.211Z,100827.13
2023-05-10T01:56:14.783Z,100829.06
2023-05-10T01:58:46.507Z,100833.75
2023-05-10T02:01:14.110Z,100835.16
2023-05-10T02:03:42.428Z,100827.44
2023-05-10T02:06:11.463Z,100825.50
2023-05-10T02:08:39.531Z,100834.56
2023-05-10T02:11:06.696Z,100831.81
2023-05-10T02:13:35.137Z,100830.72
2023-05-10T02:16:04.030Z,100833.75
2023-05-10T02:18:32.461Z,100845.53
2023-05-10T02:20:59.790Z,100847.44
2023-05-10T02:23:27.414Z,100847.44
2023-05-10T02:25:55.610Z,100846.84
2023-05-10T02:28:24.551Z,100844.66
2023-05-10T02:30:52.155Z,100846.84
2023-05-10T02:33:20.739Z,100847.69
2023-05-10T02:35:48.028Z,100842.44
2023-05-10T02:38:16.319Z,100837.50
2023-05-10T02:40:44.381Z,100839.09
2023-05-10T02:43:15.326Z,100841.06
2023-05-10T02:45:44.036Z,100841.63
2023-05-10T02:48:10.818Z,100834.22
2023-05-10T02:50:39.381Z,100844.34
2023-05-10T02:53:12.660Z,100835.88
2023-05-10T02:55:42.537Z,100837.00
2023-05-10T02:58:09.244Z,100840.81
2023-05-10T03:00:37.259Z,100845.50
2023-05-10T03:03:03.962Z,100843.31
2023-05-10T03:05:30.565Z,100841.38
2023-05-10T03:08:04.489Z,100853.47
2023-05-10T03:10:33.536Z,100857.31
2023-05-10T03:13:17.564Z,100842.50
2023-05-10T03:16:04.286Z,100849.38
2023-05-10T03:18:44.980Z,100845.25
2023-05-10T03:21:14.430Z,100854.56
2023-05-10T03:23:47.059Z,100851.22
2023-05-10T03:26:23.746Z,100850.69
2023-05-10T03:28:51.201Z,100846.03
2023-05-10T03:31:18.518Z,100864.16
2023-05-10T03:33:50.115Z,100866.63
2023-05-10T03:36:21.894Z,100861.69
2023-05-10T03:38:48.730Z,100857.25
2023-05-10T03:41:15.832Z,100868.53
2023-05-10T03:43:42.614Z,100872.13
2023-05-10T03:46:09.151Z,100871.53
2023-05-10T03:48:35.953Z,100871.53
2023-05-10T03:51:03.035Z,100872.59
2023-05-10T03:53:30.179Z,100870.63
2023-05-10T03:55:56.955Z,100880.22
2023-05-10T03:58:23.680Z,100874.72
2023-05-10T04:00:50.205Z,100873.91
2023-05-10T04:03:17.185Z,100871.69
2023-05-10T04:05:43.888Z,100877.22
2023-05-10T04:08:10.527Z,100879.56
2023-05-10T04:10:37.220Z,100888.81
2023-05-10T04:13:03.809Z,100890.44
2023-05-10T04:15:30.331Z,100880.91
2023-05-10T04:17:57.043Z,100885.03
2023-05-10T04:20:23.647Z,100893.72
2023-05-10T04:22:50.166Z,100880.03
2023-05-10T04:25:16.675Z,100894.81
2023-05-10T04:27:43.239Z,100892.16
2023-05-10T04:30:10.228Z,100893.56
2023-05-10T04:32:37.099Z,100894.47
2023-05-10T04:35:05.626Z,100891.38
2023-05-10T04:37:32.198Z,100893.56
2023-05-10T04:40:00.773Z,100891.34
2023-05-10T04:42:27.325Z,100896.25
2023-05-10T04:44:53.901Z,100894.16
2023-05-10T04:47:20.533Z,100901.88
2023-05-10T04:49:47.149Z,100902.34
2023-05-10T04:52:13.780Z,100907.03
2023-05-10T04:54:40.358Z,100901.25
2023-05-10T04:57:06.895Z,100907.81
2023-05-10T04:59:33.417Z,100904.28
2023-05-10T05:02:00.094Z,100918.81
2023-05-10T05:04:26.838Z,100910.03
2023-05-10T05:06:54.034Z,100911.69
2023-05-10T05:09:20.886Z,100913.66
2023-05-10T05:11:47.499Z,100912.53
2023-05-10T05:14:14.145Z,100918.00
2023-05-10T05:16:40.801Z,100919.63
2023-05-10T05:19:07.390Z,100909.81
2023-05-10T05:21:34.094Z,100910.91
2023-05-10T05:24:00.987Z,100925.44
2023-05-10T05:26:27.607Z,100919.47
2023-05-10T05:28:55.575Z,100919.09
2023-05-10T05:31:22.584Z,100924.81
2023-05-10T05:33:49.195Z,100924.81
2023-05-10T05:36:15.921Z,100916.34
2023-05-10T05:38:42.442Z,100925.97
2023-05-10T05:41:08.962Z,100927.63
2023-05-10T05:43:38.061Z,100927.94
2023-05-10T05:46:04.941Z,100931.00
2023-05-10T05:48:31.800Z,100930.47
2023-05-10T05:50:58.535Z,100929.38
2023-05-10T05:53:25.545Z,100930.22
2023-05-10T05:55:56.741Z,100937.63
2023-05-10T05:58:23.844Z,100938.03
2023-05-10T06:00:50.797Z,100934.50
2023-05-10T06:03:17.519Z,100934.50
2023-05-10T06:05:44.277Z,100937.19
2023-05-10T06:08:11.232Z,100938.25
2023-05-10T06:10:38.133Z,100940.50
2023-05-10T06:13:04.736Z,100941.91
2023-05-10T06:15:31.265Z,100949.00
2023-05-10T06:17:57.807Z,100956.41
2023-05-10T06:20:24.445Z,100958.63
2023-05-10T06:22:51.153Z,100966.31
2023-05-10T06:25:19.116Z,100961.91
2023-05-10T06:27:49.082Z,100964.66
2023-05-10T06:30:17.556Z,100965.00
2023-05-10T06:32:45.052Z,100956.97
2023-05-10T06:35:11.765Z,100961.44
2023-05-10T06:37:38.374Z,100960.06
2023-05-10T06:40:06.104Z,100967.22
2023-05-10T06:42:32.765Z,100969.16
2023-05-10T06:44:59.250Z,100970.22
2023-05-10T06:47:25.728Z,100968.06
2023-05-10T06:49:52.213Z,100975.25
2023-05-10T06:52:18.766Z,100984.28
2023-05-10T06:54:45.356Z,100979.72
2023-05-10T06:57:23.277Z,100989.59
2023-05-10T06:59:57.263Z,100991.19
2023-05-10T07:02:23.980Z,100981.53
2023-05-10T07:04:52.686Z,100980.75
2023-05-10T07:07:19.781Z,100991.34
2023-05-10T07:09:46.499Z,100989.25
2023-05-10T07:12:14.981Z,100996.38
2023-05-10T07:14:42.528Z,100994.75
2023-05-10T07:17:09.193Z,101007.66
2023-05-10T07:19:36.256Z,100987.22
2023-05-10T07:22:02.808Z,101009.25
2023-05-10T07:24:29.372Z,101017.50
2023-05-10T07:26:55.899Z,101017.50
2023-05-10T07:29:22.479Z,101019.16
2023-05-10T07:31:49.093Z,101022.47
2023-05-10T07:34:15.750Z,101020.28
2023-05-10T07:36:42.317Z,101023.50
2023-05-10T07:39:08.814Z,101016.06
2023-05-10T07:41:36.068Z,101028.28
2023-05-10T07:44:02.823Z,101018.63
2023-05-10T07:46:29.562Z,101025.22
2023-05-10T07:48:56.483Z,101025.31
2023-05-10T07:51:23.223Z,101028.47
2023-05-10T07:53:49.764Z,101030.09
2023-05-10T07:56:33.240Z,101035.56
2023-05-10T07:59:00.588Z,101032.53
2023-05-10T08:01:31.139Z,101035.81
2023-05-10T08:03:57.759Z,101040.47
2023-05-10T08:06:24.304Z,101041.69
2023-05-10T08:08:51.453Z,101050.97
2023-05-10T08:11:18.916Z,101049.47
2023-05-10T08:13:46.098Z,101060.00
2023-05-10T08:16:12.758Z,101057.13
2023-05-10T08:18:40.300Z,101059.84
2023-05-10T08:21:07.383Z,101059.31
2023-05-10T08:23:34.027Z,101054.38
2023-05-10T08:26:00.988Z,101068.09
2023-05-10T08:28:28.077Z,101061.16
2023-05-10T08:30:54.659Z,101063.09
2023-05-10T08:33:21.522Z,101072.72
2023-05-10T08:35:48.017Z,101069.25
2023-05-10T08:38:14.651Z,101070.94
2023-05-10T08:40:43.673Z,101083.06
2023-05-10T08:43:12.134Z,101075.97
2023-05-10T08:45:43.315Z,101080.38
2023-05-10T08:48:11.370Z,101074.91
2023-05-10T08:50:40.058Z,101081.00
2023-05-10T08:53:11.225Z,101086.47
2023-05-10T08:55:39.537Z,101086.25
2023-05-10T08:58:07.323Z,101074.13
2023-05-10T09:00:34.660Z,101084.03
2023-05-10T09:03:02.583Z,101085.44
2023-05-10T09:05:29.267Z,101084.94
2023-05-10T09:07:55.870Z,101089.31
2023-05-10T09:10:23.637Z,101091.00
2023-05-10T09:12:50.755Z,101088.00
2023-05-10T09:15:20.188Z,101094.63
2023-05-10T09:17:48.115Z,101099.31
2023-05-10T09:20:14.764Z,101103.44
2023-05-10T09:22:41.767Z,101104.78
2023-05-10T09:25:13.373Z,101104.78
2023-05-10T09:27:41.796Z,101106.72
2023-05-10T09:30:09.049Z,101105.94
2023-05-10T09:32:43.680Z,101105.09
2023-05-10T09:35:15.265Z,101102.91
2023-05-10T09:37:45.529Z,101113.81
2023-05-10T09:40:16.665Z,101110.16
2023-05-10T09:42:52.252Z,101109.34
2023-05-10T09:45:19.088Z,101111.00
2023-05-10T09:47:46.976Z,101116.81
2023-05-10T09:50:13.623Z,101119.31
2023-05-10T09:52:54.828Z,101124.56
2023-05-10T09:55:46.652Z,101116.63
2023-05-10T09:58:16.388Z,101117.47
2023-05-10T10:00:48.603Z,101123.84
2023-05-10T10:03:20.125Z,101120.94
2023-05-10T10:05:48.453Z,101119.25
2023-05-10T10:08:16.563Z,101112.94
2023-05-10T10:10:46.337Z,101120.47
2023-05-10T10:13:13.276Z,101115.63
2023-05-10T10:15:39.944Z,101123.06
2023-05-10T10:18:07.477Z,101117.84
2023-05-10T10:20:34.463Z,101119.81
2023-05-10T10:23:00.993Z,101124.78
2023-05-10T10:25:27.668Z,101129.16
2023-05-10T10:27:54.164Z,101128.06
2023-05-10T10:30:42.561Z,101141.31
2023-05-10T10:33:39.945Z,101136.63
2023-05-10T10:36:07.047Z,101146.22
2023-05-10T10:38:48.556Z,101139.06
2023-05-10T10:41:35.350Z,101138.50
2023-05-10T10:44:24.425Z,101142.31
2023-05-10T10:47:10.905Z,101136.81
2023-05-10T10:49:47.001Z,101139.63
2023-05-10T10:52:21.857Z,101137.41
2023-05-10T10:54:52.357Z,101138.25
2023-05-10T10:57:20.489Z,101140.72
2023-05-10T10:59:47.317Z,101131.94
2023-05-10T11:02:54.354Z,101132.25
2023-05-10T11:05:36.679Z,101135.84
2023-05-10T11:08:12.539Z,101138.69
2023-05-10T11:10:40.201Z,101140.63
2023-05-10T11:13:08.618Z,101136.53
2023-05-10T11:15:37.436Z,101131.03
2023-05-10T11:18:29.636Z,101140.44
2023-05-10T11:20:59.496Z,101139.31
2023-05-10T11:23:31.578Z,101142.41
2023-05-10T11:25:58.542Z,101144.28
2023-05-10T11:28:25.252Z,101142.66
2023-05-10T11:30:53.094Z,101144.03
2023-05-10T11:33:20.787Z,101143.78
2023-05-10T11:35:47.596Z,101139.41
2023-05-10T11:38:14.960Z,101137.44
2023-05-10T11:40:42.195Z,101143.25
2023-05-10T11:43:10.548Z,101138.88
2023-05-10T11:45:37.903Z,101136.97
2023-05-10T11:48:04.830Z,101139.72
2023-05-10T11:50:31.310Z,101144.97
2023-05-10T11:52:59.668Z,101137.00
2023-05-10T11:55:26.258Z,101133.72
2023-05-10T11:57:54.031Z,101137.00
2023-05-10T12:00:20.858Z,101127.34
2023-05-10T12:02:48.309Z,101133.44
2023-05-10T12:05:15.232Z,101129.00
2023-05-10T12:07:41.778Z,101141.94
2023-05-10T12:10:11.091Z,101154.31
2023-05-10T12:12:45.615Z,101160.06
2023-05-10T12:15:18.016Z,101165.56
2023-05-10T12:17:45.847Z,101164.72
2023-05-10T12:20:21.080Z,101163.91
2023-05-10T12:23:00.648Z,101153.16
2023-05-10T12:25:32.391Z,101161.19
2023-05-10T12:28:01.748Z,101169.78
2023-05-10T12:30:29.989Z,101173.03
2023-05-10T12:33:02.193Z,101177.16
2023-05-10T12:35:32.275Z,101176.31
2023-05-10T12:37:59.067Z,101168.31
2023-05-10T12:40:25.819Z,101176.00
2023-05-10T12:42:53.013Z,101177.34
2023-05-10T12:45:19.667Z,101185.09
2023-05-10T12:47:46.219Z,101175.41
2023-05-10T12:50:12.760Z,101190.84
2023-05-10T12:52:39.257Z,101201.56
2023-05-10T12:55:05.878Z,101214.47
2023-05-10T12:57:32.373Z,101221.88
2023-05-10T12:59:58.844Z,101226.53
2023-05-10T13:02:25.404Z,101234.22
2023-05-10T13:04:52.042Z,101232.28
2023-05-10T13:07:18.677Z,101222.59
2023-05-10T13:09:45.322Z,101227.28
2023-05-10T13:12:11.844Z,101219.84
2023-05-10T13:14:38.516Z,101215.66
2023-05-10T13:17:05.119Z,101216.25
2023-05-10T13:19:31.736Z,101208.19
2023-05-10T13:21:58.879Z,101210.09
2023-05-10T13:24:25.487Z,101211.84
2023-05-10T13:26:51.955Z,101204.66
2023-05-10T13:29:19.020Z,101203.31
2023-05-10T13:31:45.977Z,101201.41
2023-05-10T13:34:12.544Z,101203.38
2023-05-10T13:36:39.155Z,101203.38
2023-05-10T13:39:06.299Z,101213.03
2023-05-10T13:41:33.006Z,101219.13
2023-05-10T13:43:59.511Z,101218.00
2023-05-10T13:46:26.150Z,101225.72
2023-05-10T13:48:52.675Z,101225.47
2023-05-10T13:51:19.152Z,101223.22
2023-05-10T13:53:45.835Z,101230.66
2023-05-10T13:56:12.412Z,101233.72
2023-05-10T13:58:38.971Z,101225.97
2023-05-10T14:01:05.825Z,101223.50
2023-05-10T14:03:33.499Z,101227.59
2023-05-10T14:06:00.236Z,101227.06
2023-05-10T14:08:27.988Z,101226.78
2023-05-10T14:10:54.518Z,101232.34
2023-05-10T14:13:20.981Z,101230.16
2023-05-10T14:15:47.515Z,101226.31
2023-05-10T14:18:14.042Z,101226.59
2023-05-10T14:20:40.802Z,101220.44
2023-05-10T14:23:08.354Z,101222.06
2023-05-10T14:25:35.966Z,101223.75
2023-05-10T14:28:02.573Z,101226.19
2023-05-10T14:30:29.104Z,101222.97
2023-05-10T14:32:56.316Z,101219.03
2023-05-10T14:35:23.040Z,101213.19
2023-05-10T14:37:50.230Z,101221.47
2023-05-10T14:40:18.050Z,101219.56
2023-05-10T14:42:44.598Z,101228.34
2023-05-10T14:45:11.953Z,101226.97
2023-05-10T14:47:38.485Z,101223.97
2023-05-10T14:50:05.435Z,101222.34
2023-05-10T14:52:34.176Z,101225.41
2023-05-10T14:55:02.212Z,101219.03
2023-05-10T14:57:30.521Z,101227.91
2023-05-10T14:59:57.748Z,101221.28
2023-05-10T15:02:24.865Z,101230.13
2023-05-10T15:04:51.939Z,101225.16
2023-05-10T15:07:19.265Z,101225.16
2023-05-10T15:09:46.160Z,101219.66
2023-05-10T15:12:12.652Z,101220.75
2023-05-10T15:14:39.146Z,101226.53
2023-05-10T15:17:07.575Z,101232.06
2023-05-10T15:19:34.248Z,101233.75
2023-05-10T15:22:00.842Z,101230.47
2023-05-10T15:24:27.343Z,101235.44
2023-05-10T15:26:53.888Z,101239.28
2023-05-10T15:29:23.361Z,101235.75
2023-05-10T15:31:51.693Z,101241.75
2023-05-10T15:34:18.827Z,101230.72
2023-05-10T15:36:46.332Z,101232.41
2023-05-10T15:39:12.922Z,101233.78
2023-05-10T15:41:39.469Z,101232.72
2023-05-10T15:44:06.321Z,101233.53
2023-05-10T15:46:32.922Z,101236.59
2023-05-10T15:49:00.035Z,101243.72
2023-05-10T15:51:26.843Z,101242.94
2023-05-10T15:54:05.893Z,101235.75
2023-05-10T15:56:34.457Z,101244.84
2023-05-10T15:59:01.118Z,101244.53
2023-05-10T16:01:28.546Z,101246.75
2023-05-10T16:03:55.117Z,101255.56
2023-05-10T16:06:21.671Z,101251.75
2023-05-10T16:08:48.565Z,101262.22
2023-05-10T16:11:15.116Z,101254.50
2023-05-10T16:13:41.647Z,101258.63
2023-05-10T16:16:08.942Z,101263.06
2023-05-10T16:18:36.041Z,101264.72
2023-05-10T16:21:02.656Z,101266.28
2023-05-10T16:23:29.481Z,101269.63
2023-05-10T16:25:56.111Z,101278.16
2023-05-10T16:28:22.800Z,101272.41
2023-05-10T16:30:49.400Z,101271.25
2023-05-10T16:33:16.739Z,101277.28
2023-05-10T16:35:43.837Z,101270.66
2023-05-10T16:38:11.107Z,101275.88
2023-05-10T16:40:37.609Z,101279.47
2023-05-10T16:43:04.139Z,101278.31
2023-05-10T16:45:33.463Z,101283.53
2023-05-10T16:48:00.228Z,101287.66
2023-05-10T16:50:26.759Z,101288.16
2023-05-10T16:52:53.357Z,101283.16
2023-05-10T16:55:20.007Z,101284.84
2023-05-10T16:57:46.569Z,101291.91
2023-05-10T17:00:13.485Z,101287.75
2023-05-10T17:02:40.106Z,101295.50
2023-05-10T17:05:06.988Z,101304.28
2023-05-10T17:07:33.515Z,101298.78
2023-05-10T17:10:00.298Z,101296.84
2023-05-10T17:12:26.893Z,101301.53
2023-05-10T17:14:53.509Z,101304.81
2023-05-10T17:17:20.023Z,101309.72
2023-05-10T17:19:46.625Z,101305.94
2023-05-10T17:22:13.718Z,101310.25
2023-05-10T17:24:40.207Z,101313.63
2023-05-10T17:27:07.020Z,101311.84
2023-05-10T17:29:33.634Z,101317.03
2023-05-10T17:32:00.414Z,101313.97
2023-05-10T17:34:27.125Z,101312.63
2023-05-10T17:36:53.688Z,101308.53
2023-05-10T17:39:20.356Z,101311.84
2023-05-10T17:41:46.812Z,101316.84
2023-05-10T17:44:13.757Z,101310.50
2023-05-10T17:46:40.608Z,101314.09
2023-05-10T17:49:07.286Z,101322.34
2023-05-10T17:51:33.789Z,101321.25
2023-05-10T17:54:00.309Z,101314.59
2023-05-10T17:56:26.974Z,101321.25
2023-05-10T17:58:53.580Z,101327.84
2023-05-10T18:01:20.237Z,101317.34
2023-05-10T18:03:49.257Z,101323.38
2023-05-10T18:06:15.866Z,101314.53
2023-05-10T18:08:42.418Z,101318.44
2023-05-10T18:11:08.907Z,101319.78
2023-05-10T18:13:35.439Z,101311.22
2023-05-10T18:16:01.953Z,101318.91
2023-05-10T18:18:28.617Z,101318.56
2023-05-10T18:20:57.531Z,101324.91
2023-05-10T18:23:24.460Z,101324.91
2023-05-10T18:25:51.785Z,101323.75
2023-05-10T18:28:18.687Z,101326.50
2023-05-10T18:30:45.455Z,101333.91
2023-05-10T18:33:12.591Z,101333.16
2023-05-10T18:35:40.212Z,101334.75
2023-05-10T18:38:09.604Z,101333.59
2023-05-10T18:40:36.805Z,101341.84
2023-05-10T18:43:03.703Z,101337.97
2023-05-10T18:45:30.246Z,101338.63
2023-05-10T18:47:57.867Z,101336.63
2023-05-10T18:50:24.415Z,101341.28
2023-05-10T18:52:50.918Z,101339.91
2023-05-10T18:55:17.802Z,101336.63
2023-05-10T18:57:45.096Z,101335.22
2023-05-10T19:00:12.572Z,101347.13
2023-05-10T19:02:40.123Z,101340.97
2023-05-10T19:05:07.456Z,101344.50
2023-05-10T19:07:34.043Z,101349.47
2023-05-10T19:10:00.650Z,101346.72
2023-05-10T19:12:27.261Z,101345.34
2023-05-10T19:14:53.750Z,101349.47
2023-05-10T19:17:20.627Z,101351.66
2023-05-10T19:19:48.948Z,101358.81
2023-05-10T19:22:15.644Z,101351.34
2023-05-10T19:24:42.473Z,101353.50
2023-05-10T19:27:09.058Z,101362.59
2023-05-10T19:29:35.652Z,101357.88
2023-05-10T19:32:02.361Z,101359.72
2023-05-10T19:34:29.897Z,101371.22
2023-05-10T19:36:56.402Z,101369.63
2023-05-10T19:39:22.865Z,101366.88
2023-05-10T19:41:49.930Z,101365.22
2023-05-10T19:44:16.540Z,101367.91
2023-05-10T19:46:43.073Z,101366.00
2023-05-10T19:49:09.607Z,101375.06
2023-05-10T19:51:36.196Z,101370.41
2023-05-10T19:54:02.759Z,101379.31
2023-05-10T19:56:29.607Z,101383.44
2023-05-10T19:58:56.182Z,101386.13
2023-05-10T20:01:22.750Z,101386.41
2023-05-10T20:03:49.363Z,101391.13
2023-05-10T20:06:15.939Z,101389.97
2023-05-10T20:08:42.510Z,101383.38
2023-05-10T20:11:09.171Z,101386.13
2023-05-10T20:13:35.670Z,101382.88
2023-05-10T20:16:02.566Z,101395.59
2023-05-10T20:18:29.240Z,101384.59
2023-05-10T20:20:58.785Z,101388.09
2023-05-10T20:23:25.683Z,101392.84
2023-05-10T20:25:52.776Z,101387.66
2023-05-10T20:28:25.117Z,101390.94
2023-05-10T20:30:53.712Z,101383.16
2023-05-10T20:33:21.624Z,101388.94
2023-05-10T20:35:48.184Z,101380.69
2023-05-10T20:38:14.717Z,101377.34
2023-05-10T20:40:41.513Z,101383.69
2023-05-10T20:43:08.062Z,101383.56
2023-05-10T20:45:37.453Z,101387.38
2023-05-10T20:48:04.587Z,101391.47
2023-05-10T20:50:31.089Z,101398.94
2023-05-10T20:52:57.684Z,101407.19
2023-05-10T20:55:24.275Z,101402.81
2023-05-10T20:57:51.470Z,101396.78
2023-05-10T21:00:18.453Z,101394.53
2023-05-10T21:02:46.033Z,101393.72
2023-05-10T21:05:12.681Z,101390.13
2023-05-10T21:07:39.366Z,101379.44
2023-05-10T21:10:10.763Z,101386.31
2023-05-10T21:12:37.406Z,101391.94
2023-05-10T21:15:04.417Z,101398.28
2023-05-10T21:17:31.018Z,101391.78
2023-05-10T21:19:57.636Z,101387.94
2023-05-10T21:22:24.198Z,101385.25
2023-05-10T21:24:50.722Z,101394.38
2023-05-10T21:27:17.191Z,101392.47
2023-05-10T21:29:43.833Z,101390.03
2023-05-10T21:32:10.436Z,101389.28
2023-05-10T21:34:36.957Z,101392.88
2023-05-10T21:37:03.463Z,101390.13
2023-05-10T21:39:29.927Z,101393.72
2023-05-10T21:41:56.902Z,101391.53
2023-05-10T21:44:23.397Z,101397.72
2023-05-10T21:46:49.863Z,101395.19
2023-05-10T21:49:16.415Z,101401.03
2023-05-10T21:51:42.908Z,101406.84
2023-05-10T21:54:09.402Z,101402.28
2023-05-10T21:56:35.922Z,101397.28
2023-05-10T21:59:03.424Z,101397.22
2023-05-10T22:01:29.974Z,101406.47
2023-05-10T22:03:56.547Z,101400.97
2023-05-10T22:06:23.020Z,101398.81
2023-05-10T22:08:49.508Z,101403.28
2023-05-10T22:11:16.027Z,101400.25
2023-05-10T22:13:42.502Z,101393.69
2023-05-10T22:16:08.965Z,101396.63
2023-05-10T22:18:35.506Z,101401.88
2023-05-10T22:21:02.099Z,101400.63
2023-05-10T22:23:28.663Z,101405.88
2023-05-10T22:26:01.517Z,101403.56
2023-05-10T22:28:28.776Z,101399.13
2023-05-10T22:30:55.634Z,101406.31
2023-05-10T22:33:22.112Z,101406.56
2023-05-10T22:35:48.569Z,101404.38
2023-05-10T22:38:15.102Z,101410.97
2023-05-10T22:40:42.102Z,101407.03
2023-05-10T22:43:08.582Z,101404.63
2023-05-10T22:45:35.148Z,101408.47
2023-05-10T22:48:05.052Z,101413.97
2023-05-10T22:50:31.792Z,101412.63
2023-05-10T22:52:58.271Z,101418.47
2023-05-10T22:55:24.832Z,101410.63
2023-05-10T22:57:52.353Z,101420.03
2023-05-10T23:00:19.426Z,101413.88
2023-05-10T23:02:46.086Z,101408.31
2023-05-10T23:05:13.120Z,101412.97
2023-05-10T23:07:39.723Z,101406.31
2023-05-10T23:10:06.702Z,101418.38
2023-05-10T23:12:33.831Z,101415.28
2023-05-10T23:15:00.434Z,101407.88
2023-05-10T23:17:27.000Z,101412.81
2023-05-10T23:19:53.506Z,101409.78
2023-05-10T23:22:20.069Z,101413.03
2023-05-10T23:24:46.612Z,101414.31
2023-05-10T23:27:14.516Z,101414.81
2023-05-10T23:29:41.556Z,101419.16
2023-05-10T23:32:08.100Z,101417.47
2023-05-10T23:34:34.683Z,101418.81
2023-05-10T23:37:01.273Z,101419.63
2023-05-10T23:39:27.981Z,101430.03
2023-05-10T23:41:54.810Z,101418.13
2023-05-10T23:44:21.324Z,101416.47
2023-05-10T23:46:47.875Z,101420.31
2023-05-10T23:49:14.397Z,101412.56
2023-05-10T23:51:40.910Z,101413.41
2023-05-10T23:54:07.470Z,101413.47
2023-05-10T23:56:34.169Z,101416.97
2023-05-10T23:59:00.767Z,101407.31
